Time;durP1;ratioP1;P1;durP2;ratioP2;P2;SDS_P1;SDS_P2;PMS_P1;PMS_P2;Temp;Humidity;BMP_temperature;BMP_pressure;BME280_temperature;BME280_humidity;BME280_pressure;Samples;Min_cycle;Max_cycle;Signal;HPM_P1;HPM_P2
2023/09/07 00:01:47;;;;;;;;;;;;;;;21.10;29.11;98428.09;5043667;28;1366;-77
2023/09/07 00:04:12;;;;;;;;;;;;;;;20.99;29.02;98427.50;5024193;28;1348;-77
2023/09/07 00:06:39;;;;;;;;;;;;;;;20.94;29.27;98428.00;5039196;28;1482;-77
2023/09/07 00:09:05;;;;;;;;;;;;;;;20.92;29.12;98422.75;5057867;28;857;-78
2023/09/07 00:11:31;;;;;;;;;;;;;;;20.77;29.60;98415.72;5036906;28;1381;-77
2023/09/07 00:13:59;;;;;;;;;;;;;;;20.86;29.26;98412.34;5038366;28;1910;-78
2023/09/07 00:16:24;;;;;;;;;;;;;;;21.04;28.85;98418.50;5053891;28;825;-77
2023/09/07 00:18:50;;;;;;;;;;;;;;;20.84;29.16;98414.81;5054104;28;859;-77
2023/09/07 00:21:16;;;;;;;;;;;;;;;20.97;28.95;98412.97;5017778;28;1331;-77
2023/09/07 00:23:41;;;;;;;;;;;;;;;21.03;28.72;98411.22;5019669;28;928;-77
2023/09/07 00:26:07;;;;;;;;;;;;;;;20.91;29.17;98409.03;5036088;28;901;-77
2023/09/07 00:28:33;;;;;;;;;;;;;;;21.02;28.99;98416.09;5036257;28;961;-78
2023/09/07 00:30:58;;;;;;;;;;;;;;;21.08;28.74;98416.41;5019106;28;1354;-77
2023/09/07 00:33:24;;;;;;;;;;;;;;;20.88;29.06;98409.88;5036184;28;1926;-77
2023/09/07 00:35:49;;;;;;;;;;;;;;;21.00;28.82;98415.75;5019543;28;907;-77
2023/09/07 00:38:15;;;;;;;;;;;;;;;21.14;28.55;98417.53;5003274;28;1860;-77
2023/09/07 00:40:45;;;;;;;;;;;;;;;21.26;28.46;98414.06;5002823;28;1335;-78
2023/09/07 00:43:10;;;;;;;;;;;;;;;21.17;28.64;98408.16;5019817;28;999;-78
2023/09/07 00:45:36;;;;;;;;;;;;;;;20.95;29.17;98415.44;5035879;28;1024;-78
2023/09/07 00:48:02;;;;;;;;;;;;;;;20.78;29.26;98412.47;5003042;28;1091;-78
2023/09/07 00:50:28;;;;;;;;;;;;;;;20.90;29.14;98413.91;5015975;28;1349;-78
2023/09/07 00:52:53;;;;;;;;;;;;;;;20.76;29.31;98412.09;4999398;28;1914;-77
2023/09/07 00:55:19;;;;;;;;;;;;;;;20.97;28.96;98407.31;4982946;28;1402;-77
2023/09/07 00:57:45;;;;;;;;;;;;;;;20.97;29.05;98412.97;4985978;28;1138;-77
2023/09/07 01:00:11;;;;;;;;;;;;;;;20.85;29.03;98399.44;5053337;28;1479;-78
2023/09/07 01:02:36;;;;;;;;;;;;;;;21.03;28.75;98406.38;5016009;28;1704;-77
2023/09/07 01:05:04;;;;;;;;;;;;;;;21.04;28.66;98398.72;5015859;28;1135;-77
2023/09/07 01:07:50;;;;;;;;;;;;;;;20.88;29.06;98395.75;4983280;28;1245;-77
2023/09/07 01:10:18;;;;;;;;;;;;;;;21.23;28.40;98397.13;5001840;28;1386;-77
2023/09/07 01:12:45;;;;;;;;;;;;;;;20.98;28.64;98391.91;5003318;28;1977;-77
2023/09/07 01:15:11;;;;;;;;;;;;;;;21.06;28.64;98404.72;5002952;28;1535;-77
2023/09/07 01:17:37;;;;;;;;;;;;;;;21.05;28.44;98397.47;5018930;28;1309;-78
2023/09/07 01:20:05;;;;;;;;;;;;;;;20.79;29.18;98397.09;5035050;28;1349;-77
2023/09/07 01:22:31;;;;;;;;;;;;;;;20.70;29.27;98399.69;5019666;28;820;-77
2023/09/07 01:24:57;;;;;;;;;;;;;;;20.84;29.02;98395.03;5035206;28;856;-77
2023/09/07 01:27:22;;;;;;;;;;;;;;;21.15;28.22;98396.47;5018907;28;847;-77
2023/09/07 01:29:48;;;;;;;;;;;;;;;21.17;28.49;98394.00;5035088;28;864;-77
2023/09/07 01:32:14;;;;;;;;;;;;;;;20.87;28.80;98402.63;4998218;28;1353;-77
2023/09/07 01:34:39;;;;;;;;;;;;;;;20.92;28.52;98410.63;5017449;28;1972;-78
2023/09/07 01:37:05;;;;;;;;;;;;;;;20.93;28.46;98400.91;5035507;28;1083;-77
2023/09/07 01:39:30;;;;;;;;;;;;;;;21.09;28.43;98398.22;5037189;28;834;-77
2023/09/07 01:41:56;;;;;;;;;;;;;;;21.12;28.28;98391.66;5048591;28;1464;-78
2023/09/07 01:44:22;;;;;;;;;;;;;;;20.90;28.65;98398.94;5019595;28;861;-77
2023/09/07 01:46:47;;;;;;;;;;;;;;;20.88;28.81;98393.75;5036051;28;783;-77
2023/09/07 01:49:13;;;;;;;;;;;;;;;21.03;28.55;98389.41;5035921;28;1193;-77
2023/09/07 01:51:38;;;;;;;;;;;;;;;20.87;28.74;98402.63;5049244;28;1472;-78
2023/09/07 01:54:05;;;;;;;;;;;;;;;20.74;28.80;98394.78;5055745;28;1983;-77
2023/09/07 01:56:31;;;;;;;;;;;;;;;21.02;28.73;98404.78;5039511;28;1198;-78
2023/09/07 01:58:56;;;;;;;;;;;;;;;21.19;28.29;98402.88;5039061;28;1226;-77
2023/09/07 02:01:26;;;;;;;;;;;;;;;20.98;28.69;98403.25;5038726;28;1352;-77
2023/09/07 02:03:51;;;;;;;;;;;;;;;21.17;28.43;98396.84;5039116;28;1167;-77
2023/09/07 02:06:18;;;;;;;;;;;;;;;21.00;28.40;98400.78;5034454;28;895;-77
2023/09/07 02:08:43;;;;;;;;;;;;;;;21.27;28.30;98398.66;5017899;28;908;-77
2023/09/07 02:11:09;;;;;;;;;;;;;;;21.10;28.38;98396.97;5017035;28;1442;-78
2023/09/07 02:13:35;;;;;;;;;;;;;;;21.08;28.44;98391.72;4981639;28;1914;-77
2023/09/07 02:16:04;;;;;;;;;;;;;;;20.91;28.87;98398.50;5014804;28;945;-77
2023/09/07 02:18:29;;;;;;;;;;;;;;;20.86;28.64;98395.38;5014556;28;927;-77
2023/09/07 02:21:00;;;;;;;;;;;;;;;20.97;28.57;98396.78;5021446;28;1590;-77
2023/09/07 02:23:26;;;;;;;;;;;;;;;21.06;28.70;98387.75;5034621;28;919;-78
2023/09/07 02:25:52;;;;;;;;;;;;;;;21.06;28.34;98387.75;5034187;28;923;-78
2023/09/07 02:28:17;;;;;;;;;;;;;;;20.77;29.09;98393.91;5017822;28;1315;-78
2023/09/07 02:30:43;;;;;;;;;;;;;;;20.77;29.11;98399.56;5017168;28;1672;-77
2023/09/07 02:33:08;;;;;;;;;;;;;;;20.91;28.74;98392.06;5017748;28;1967;-77
2023/09/07 02:35:37;;;;;;;;;;;;;;;20.97;28.81;98390.34;5018062;28;1256;-77
2023/09/07 02:38:02;;;;;;;;;;;;;;;20.91;28.67;98386.41;4992642;28;1370;-77
2023/09/07 02:40:28;;;;;;;;;;;;;;;20.88;28.77;98395.75;4995922;28;1610;-78
2023/09/07 02:42:54;;;;;;;;;;;;;;;20.70;29.19;98390.41;4967638;28;1446;-77
2023/09/07 02:45:19;;;;;;;;;;;;;;;21.03;28.75;98388.59;4956153;29;1121;-78
2023/09/07 02:47:46;;;;;;;;;;;;;;;20.81;29.16;98394.63;4956309;29;1376;-77
2023/09/07 02:50:12;;;;;;;;;;;;;;;20.79;29.02;98391.44;4939859;29;1446;-78
2023/09/07 02:52:39;;;;;;;;;;;;;;;20.92;28.91;98388.00;4958637;28;1910;-77
2023/09/07 02:55:06;;;;;;;;;;;;;;;20.90;28.93;98390.47;4975569;28;982;-78
2023/09/07 02:57:32;;;;;;;;;;;;;;;20.84;28.96;98392.19;4975335;28;1159;-77
2023/09/07 02:59:57;;;;;;;;;;;;;;;20.93;29.11;98383.94;4975369;28;1202;-78
2023/09/07 03:02:23;;;;;;;;;;;;;;;21.23;28.38;98386.59;4972621;28;1472;-77
2023/09/07 03:04:53;;;;;;;;;;;;;;;20.94;28.99;98396.88;4974359;28;1595;-77
2023/09/07 03:07:18;;;;;;;;;;;;;;;20.89;29.22;98395.34;4975181;28;919;-77
2023/09/07 03:09:44;;;;;;;;;;;;;;;21.02;28.96;98399.13;5006202;28;1252;-77
2023/09/07 03:12:10;;;;;;;;;;;;;;;20.80;29.11;98395.88;4997556;28;1594;-77
2023/09/07 03:14:35;;;;;;;;;;;;;;;20.86;29.00;98398.22;5046488;28;1914;-77
2023/09/07 03:17:03;;;;;;;;;;;;;;;20.94;28.97;98405.34;5038530;28;909;-77
2023/09/07 03:19:29;;;;;;;;;;;;;;;20.75;29.30;98395.56;5025876;28;1586;-77
2023/09/07 03:21:55;;;;;;;;;;;;;;;20.94;29.31;98402.53;5040448;28;1324;-77
2023/09/07 03:24:20;;;;;;;;;;;;;;;21.00;29.24;98407.25;5059499;28;1505;-76
2023/09/07 03:26:46;;;;;;;;;;;;;;;21.10;28.65;98399.81;5042019;28;1425;-77
2023/09/07 03:29:12;;;;;;;;;;;;;;;20.75;29.75;98407.69;5042047;28;1218;-77
2023/09/07 03:31:38;;;;;;;;;;;;;;;20.73;29.53;98410.16;5060512;28;1507;-77
2023/09/07 03:34:03;;;;;;;;;;;;;;;20.68;29.68;98413.47;5042050;28;1909;-77
2023/09/07 03:36:29;;;;;;;;;;;;;;;20.69;29.64;98405.78;5058716;28;735;-77
2023/09/07 03:38:54;;;;;;;;;;;;;;;21.04;28.85;98408.00;5059603;28;854;-77
2023/09/07 03:41:20;;;;;;;;;;;;;;;20.84;29.12;98409.16;5053850;28;1730;-77
2023/09/07 03:43:46;;;;;;;;;;;;;;;20.61;29.44;98412.75;5054967;28;1150;-78
2023/09/07 03:46:11;;;;;;;;;;;;;;;20.79;29.39;98414.06;5055171;28;1285;-77
2023/09/07 03:48:37;;;;;;;;;;;;;;;20.93;28.95;98407.34;5038394;28;1248;-78
2023/09/07 03:51:06;;;;;;;;;;;;;;;20.96;28.96;98422.69;5038076;28;942;-78
2023/09/07 03:53:31;;;;;;;;;;;;;;;20.94;28.89;98413.84;5047965;28;1971;-77
2023/09/07 03:55:57;;;;;;;;;;;;;;;20.76;29.16;98414.13;5041681;28;1317;-78
2023/09/07 03:58:23;;;;;;;;;;;;;;;20.95;29.06;98418.25;5040529;28;1321;-77
2023/09/07 04:00:49;;;;;;;;;;;;;;;20.81;29.17;98420.09;5057971;28;1161;-78
2023/09/07 04:03:14;;;;;;;;;;;;;;;21.05;28.55;98425.75;5057968;28;814;-77
2023/09/07 04:05:40;;;;;;;;;;;;;;;20.96;29.11;98425.50;5041464;28;1248;-78
2023/09/07 04:08:06;;;;;;;;;;;;;;;20.94;29.09;98419.50;5058846;28;799;-77
2023/09/07 04:10:31;;;;;;;;;;;;;;;20.93;29.14;98424.31;5040888;28;1110;-78
2023/09/07 04:12:57;;;;;;;;;;;;;;;20.97;28.98;98429.94;5040995;28;1976;-77
2023/09/07 04:15:22;;;;;;;;;;;;;;;20.97;28.81;98415.78;5040622;28;1166;-78
2023/09/07 04:17:49;;;;;;;;;;;;;;;20.96;28.85;98428.34;5056229;28;1268;-77
2023/09/07 04:20:15;;;;;;;;;;;;;;;20.86;29.20;98423.66;5039043;28;1219;-77
2023/09/07 04:22:41;;;;;;;;;;;;;;;20.78;29.22;98420.16;5039165;28;925;-77
2023/09/07 04:25:06;;;;;;;;;;;;;;;21.18;28.63;98423.91;5055339;28;829;-77
2023/09/07 04:27:33;;;;;;;;;;;;;;;21.27;28.63;98426.97;5022620;28;1218;-77
2023/09/07 04:30:00;;;;;;;;;;;;;;;20.95;29.18;98426.75;5037290;28;1175;-77
2023/09/07 04:32:26;;;;;;;;;;;;;;;20.83;29.23;98427.34;5038444;28;1325;-77
2023/09/07 04:34:53;;;;;;;;;;;;;;;20.92;29.29;98433.25;5038860;28;1909;-78
2023/09/07 04:37:19;;;;;;;;;;;;;;;20.83;29.38;98435.81;5039020;28;1312;-78
2023/09/07 04:39:45;;;;;;;;;;;;;;;20.98;28.98;98431.53;5039376;28;1123;-77
2023/09/07 04:42:11;;;;;;;;;;;;;;;21.02;28.93;98432.28;5039038;28;890;-77
2023/09/07 04:44:36;;;;;;;;;;;;;;;21.00;29.10;98429.09;5022080;28;1159;-77
2023/09/07 04:47:03;;;;;;;;;;;;;;;20.95;29.16;98432.41;5038916;28;1103;-78
2023/09/07 04:49:29;;;;;;;;;;;;;;;21.04;28.94;98429.84;5051576;28;1070;-78
2023/09/07 04:51:54;;;;;;;;;;;;;;;21.15;28.90;98438.94;5056526;28;1146;-78
2023/09/07 04:54:20;;;;;;;;;;;;;;;20.96;29.16;98439.66;5039259;28;1906;-78
2023/09/07 04:56:45;;;;;;;;;;;;;;;20.87;29.59;98443.03;5056059;28;1118;-78
2023/09/07 04:59:11;;;;;;;;;;;;;;;20.83;29.55;98438.66;5056033;28;857;-78
2023/09/07 05:01:37;;;;;;;;;;;;;;;21.08;29.25;98447.53;5019300;28;1148;-79
2023/09/07 05:04:03;;;;;;;;;;;;;;;21.07;28.93;98448.75;5019209;28;1251;-78
2023/09/07 05:06:29;;;;;;;;;;;;;;;20.98;29.15;98442.84;5019145;28;1195;-78
2023/09/07 05:08:55;;;;;;;;;;;;;;;20.87;29.39;98436.56;4979926;28;1123;-78
2023/09/07 05:11:20;;;;;;;;;;;;;;;20.97;29.24;98435.59;4995997;28;1295;-78
2023/09/07 05:13:46;;;;;;;;;;;;;;;20.79;29.70;98436.69;4996435;28;1902;-78
2023/09/07 05:16:11;;;;;;;;;;;;;;;20.91;29.67;98440.16;4995931;28;924;-78
2023/09/07 05:18:37;;;;;;;;;;;;;;;21.12;29.11;98442.59;4979825;28;1323;-78
2023/09/07 05:21:13;;;;;;;;;;;;;;;21.07;29.42;98445.94;4980028;28;1243;-78
2023/09/07 05:23:38;;;;;;;;;;;;;;;21.14;29.17;98451.47;4979768;28;966;-78
2023/09/07 05:26:04;;;;;;;;;;;;;;;20.97;29.58;98452.56;4996269;28;982;-78
2023/09/07 05:28:30;;;;;;;;;;;;;;;20.96;29.56;98456.63;5011729;28;938;-78
2023/09/07 05:30:56;;;;;;;;;;;;;;;21.09;29.13;98454.81;4995873;28;1163;-78
2023/09/07 05:33:23;;;;;;;;;;;;;;;21.06;29.25;98455.66;5015499;28;1977;-79
2023/09/07 05:35:48;;;;;;;;;;;;;;;20.98;29.63;98454.16;4982764;28;1067;-78
2023/09/07 05:38:14;;;;;;;;;;;;;;;21.06;29.21;98452.81;4975174;28;1385;-76
2023/09/07 05:40:42;;;;;;;;;;;;;;;21.10;29.47;98445.06;4943686;28;1073;-78
2023/09/07 05:43:08;;;;;;;;;;;;;;;21.19;29.01;98451.00;4992065;28;974;-77
2023/09/07 05:45:36;;;;;;;;;;;;;;;20.97;29.66;98446.91;4975727;28;1248;-77
2023/09/07 05:48:02;;;;;;;;;;;;;;;21.03;29.62;98457.28;4975702;28;1245;-77
2023/09/07 05:50:28;;;;;;;;;;;;;;;20.94;29.66;98453.44;4976004;28;1296;-78
2023/09/07 05:52:53;;;;;;;;;;;;;;;21.02;29.44;98464.19;4991795;28;1965;-78
2023/09/07 05:55:19;;;;;;;;;;;;;;;21.00;29.69;98468.69;4962908;28;1290;-78
2023/09/07 05:57:45;;;;;;;;;;;;;;;20.97;29.70;98463.88;4979028;28;1041;-77
2023/09/07 06:00:11;;;;;;;;;;;;;;;20.69;30.15;98465.94;4979052;28;1250;-78
2023/09/07 06:02:39;;;;;;;;;;;;;;;21.30;29.26;98464.97;4995168;28;982;-78
2023/09/07 06:05:07;;;;;;;;;;;;;;;20.96;29.91;98468.75;5010305;28;1393;-78
2023/09/07 06:07:33;;;;;;;;;;;;;;;20.97;29.79;98473.16;4978950;28;1277;-78
2023/09/07 06:09:59;;;;;;;;;;;;;;;21.00;29.58;98483.63;4995008;28;1187;-78
2023/09/07 06:12:25;;;;;;;;;;;;;;;21.19;29.74;98486.94;4982514;28;1219;-77
2023/09/07 06:14:51;;;;;;;;;;;;;;;20.95;29.92;98489.78;4982136;28;1911;-77
2023/09/07 06:17:17;;;;;;;;;;;;;;;21.18;29.60;98480.50;4998621;28;889;-78
2023/09/07 06:19:43;;;;;;;;;;;;;;;21.29;29.46;98475.44;5014766;28;1084;-78
2023/09/07 06:22:08;;;;;;;;;;;;;;;21.23;29.45;98482.81;4982275;28;1175;-77
2023/09/07 06:24:34;;;;;;;;;;;;;;;21.18;29.58;98486.16;4982225;28;1241;-77
2023/09/07 06:27:00;;;;;;;;;;;;;;;21.19;29.82;98490.59;4975596;28;1200;-78
2023/09/07 06:29:26;;;;;;;;;;;;;;;21.27;29.82;98485.59;4975596;28;1140;-78
2023/09/07 06:31:52;;;;;;;;;;;;;;;21.08;29.90;98492.78;4933352;28;1131;-77
2023/09/07 06:34:19;;;;;;;;;;;;;;;20.86;30.42;98498.00;5014339;28;1914;-78
2023/09/07 06:36:45;;;;;;;;;;;;;;;21.05;30.07;98500.13;4998317;28;1188;-78
2023/09/07 06:39:11;;;;;;;;;;;;;;;20.89;30.22;98507.69;4998321;28;1146;-78
2023/09/07 06:41:36;;;;;;;;;;;;;;;20.81;30.51;98507.78;5014439;28;1108;-77
2023/09/07 06:44:02;;;;;;;;;;;;;;;21.24;30.00;98501.44;4998149;28;1111;-78
2023/09/07 06:46:28;;;;;;;;;;;;;;;21.11;30.35;98505.28;4998120;28;1288;-78
2023/09/07 06:48:53;;;;;;;;;;;;;;;21.02;30.37;98511.50;5014593;28;1135;-78
2023/09/07 06:51:19;;;;;;;;;;;;;;;21.07;30.33;98505.34;5014318;28;1108;-78
2023/09/07 06:53:45;;;;;;;;;;;;;;;21.16;30.03;98502.78;4985230;28;1922;-77
2023/09/07 06:56:11;;;;;;;;;;;;;;;20.90;30.54;98492.28;4982508;28;1210;-78
2023/09/07 06:58:36;;;;;;;;;;;;;;;21.14;29.86;98505.25;5027397;28;1291;-78
2023/09/07 07:01:04;;;;;;;;;;;;;;;21.49;29.54;98491.72;5024966;28;1146;-78
2023/09/07 07:03:30;;;;;;;;;;;;;;;21.32;29.80;98502.13;5058121;28;1217;-78
2023/09/07 07:05:56;;;;;;;;;;;;;;;21.18;29.90;98503.13;5024895;28;1086;-78
2023/09/07 07:08:22;;;;;;;;;;;;;;;21.02;30.33;98505.84;5024744;28;1173;-77
2023/09/07 07:10:48;;;;;;;;;;;;;;;21.04;30.52;98503.41;5024834;28;1166;-78
2023/09/07 07:13:14;;;;;;;;;;;;;;;21.29;29.81;98500.91;5024644;28;1985;-78
2023/09/07 07:15:40;;;;;;;;;;;;;;;21.45;29.96;98499.47;5057601;28;1324;-78
2023/09/07 07:18:08;;;;;;;;;;;;;;;21.39;29.76;98504.03;5024456;28;1281;-78
2023/09/07 07:20:35;;;;;;;;;;;;;;;21.32;30.12;98490.81;5024590;28;1135;-77
2023/09/07 07:23:00;;;;;;;;;;;;;;;21.33;30.02;98495.22;5024703;28;1191;-77
2023/09/07 07:25:26;;;;;;;;;;;;;;;21.11;30.41;98506.09;5057604;28;999;-78
2023/09/07 07:27:52;;;;;;;;;;;;;;;21.04;30.72;98497.72;5058951;28;856;-77
2023/09/07 07:30:17;;;;;;;;;;;;;;;21.38;30.23;98493.94;5059478;28;826;-79
2023/09/07 07:32:43;;;;;;;;;;;;;;;21.41;29.93;98495.91;5042080;28;1137;-78
2023/09/07 07:35:09;;;;;;;;;;;;;;;21.29;30.17;98491.63;5058538;28;1972;-77
2023/09/07 07:37:34;;;;;;;;;;;;;;;21.18;30.13;98494.63;5041954;28;1226;-78
2023/09/07 07:40:00;;;;;;;;;;;;;;;21.62;29.59;98497.56;5041646;28;1167;-78
2023/09/07 07:42:25;;;;;;;;;;;;;;;21.39;29.87;98490.66;5041852;28;1234;-78
2023/09/07 07:44:51;;;;;;;;;;;;;;;21.47;29.77;98492.16;5041613;28;1075;-77
2023/09/07 07:47:17;;;;;;;;;;;;;;;21.41;30.00;98495.91;5041811;28;1166;-78
2023/09/07 07:49:42;;;;;;;;;;;;;;;21.39;29.91;98498.38;5059111;28;912;-78
2023/09/07 07:52:08;;;;;;;;;;;;;;;21.36;30.13;98490.75;5041420;28;1250;-77
2023/09/07 07:54:34;;;;;;;;;;;;;;;21.30;30.09;98493.28;5058014;28;1910;-78
2023/09/07 07:57:00;;;;;;;;;;;;;;;21.22;30.46;98492.56;5041722;28;1071;-77
2023/09/07 07:59:26;;;;;;;;;;;;;;;20.91;30.65;98494.69;5057895;28;1251;-78
2023/09/07 08:01:52;;;;;;;;;;;;;;;21.42;30.09;98489.00;5058193;28;915;-77
2023/09/07 08:04:19;;;;;;;;;;;;;;;21.25;30.22;98486.03;5041419;28;1269;-78
2023/09/07 08:06:44;;;;;;;;;;;;;;;21.39;30.01;98489.88;5041273;28;1131;-77
2023/09/07 08:09:10;;;;;;;;;;;;;;;21.01;30.53;98498.56;5041200;28;1315;-77
2023/09/07 08:11:36;;;;;;;;;;;;;;;21.23;30.13;98482.81;5058871;28;1056;-78
2023/09/07 08:14:02;;;;;;;;;;;;;;;21.17;30.07;98478.09;5057272;28;1906;-77
2023/09/07 08:16:28;;;;;;;;;;;;;;;21.21;30.01;98485.31;5039792;28;1169;-78
2023/09/07 08:18:53;;;;;;;;;;;;;;;21.08;30.53;98481.47;5039731;28;1159;-78
2023/09/07 08:21:20;;;;;;;;;;;;;;;21.37;29.77;98472.53;5019443;28;1247;-77
2023/09/07 08:23:45;;;;;;;;;;;;;;;21.06;30.43;98495.25;5036498;28;1206;-78
2023/09/07 08:26:14;;;;;;;;;;;;;;;21.04;30.36;98480.75;4980644;28;1266;-78
2023/09/07 08:28:40;;;;;;;;;;;;;;;21.20;30.26;98480.88;4981236;28;1099;-77
2023/09/07 08:31:05;;;;;;;;;;;;;;;21.37;30.19;98481.03;4980823;28;1110;-78
2023/09/07 08:33:33;;;;;;;;;;;;;;;21.51;29.82;98487.22;4964454;28;1907;-78
2023/09/07 08:36:00;;;;;;;;;;;;;;;21.46;29.73;98475.59;4980239;28;884;-78
2023/09/07 08:38:27;;;;;;;;;;;;;;;21.32;30.19;98473.81;4980257;28;831;-78
2023/09/07 08:40:54;;;;;;;;;;;;;;;21.35;29.93;98477.81;4980451;28;886;-77
2023/09/07 08:43:20;;;;;;;;;;;;;;;21.31;30.16;98473.03;4964260;28;1257;-78
2023/09/07 08:45:53;;;;;;;;;;;;;;;21.32;30.46;98476.66;4964246;28;1182;-78
2023/09/07 08:48:19;;;;;;;;;;;;;;;21.57;29.67;98462.03;4980964;28;1406;-77
2023/09/07 08:50:49;;;;;;;;;;;;;;;21.67;29.87;98466.69;5000258;28;1027;-78
2023/09/07 08:53:15;;;;;;;;;;;;;;;21.54;29.84;98468.56;5017855;28;1987;-78
2023/09/07 08:55:41;;;;;;;;;;;;;;;21.33;30.26;98470.56;4996223;28;970;-78
2023/09/07 08:58:06;;;;;;;;;;;;;;;21.36;30.40;98473.75;4996301;28;904;-77
2023/09/07 09:00:32;;;;;;;;;;;;;;;21.13;30.83;98472.50;4996472;28;1164;-77
2023/09/07 09:02:58;;;;;;;;;;;;;;;21.39;30.32;98472.88;5001193;28;1128;-78
2023/09/07 09:05:24;;;;;;;;;;;;;;;21.09;31.08;98471.78;4999536;28;958;-78
2023/09/07 09:08:00;;;;;;;;;;;;;;;21.37;30.58;98458.38;4999870;28;1415;-78
2023/09/07 09:10:25;;;;;;;;;;;;;;;21.35;30.79;98461.66;4999216;28;1050;-78
2023/09/07 09:12:51;;;;;;;;;;;;;;;21.45;30.29;98465.50;4999048;28;1906;-78
2023/09/07 09:15:17;;;;;;;;;;;;;;;21.33;30.68;98469.75;4998551;28;1107;-78
2023/09/07 09:17:42;;;;;;;;;;;;;;;21.46;30.40;98467.09;4998815;28;872;-78
2023/09/07 09:20:19;;;;;;;;;;;;;;;21.36;30.58;98465.28;4999018;28;1193;-79
2023/09/07 09:22:45;;;;;;;;;;;;;;;21.55;30.41;98465.31;4998810;28;822;-78
2023/09/07 09:25:10;;;;;;;;;;;;;;;21.49;30.46;98461.34;4998527;28;865;-79
2023/09/07 09:27:36;;;;;;;;;;;;;;;21.70;29.68;98457.31;4998987;28;792;-78
2023/09/07 09:30:01;;;;;;;;;;;;;;;21.47;30.39;98457.38;5015374;28;1116;-78
2023/09/07 09:32:27;;;;;;;;;;;;;;;21.45;30.32;98454.16;5008603;28;1204;-78
2023/09/07 09:34:52;;;;;;;;;;;;;;;21.46;30.18;98455.78;5038453;28;1981;-78
2023/09/07 09:37:19;;;;;;;;;;;;;;;21.43;30.39;98456.63;5038526;28;1453;-78
2023/09/07 09:39:47;;;;;;;;;;;;;;;21.51;30.37;98455.28;5038226;28;1249;-77
2023/09/07 09:42:13;;;;;;;;;;;;;;;21.53;30.30;98461.31;5038158;28;963;-78
2023/09/07 09:44:39;;;;;;;;;;;;;;;21.18;30.88;98457.06;5038386;28;1159;-78
2023/09/07 09:47:05;;;;;;;;;;;;;;;21.45;30.45;98454.16;5021734;28;1072;-78
2023/09/07 09:49:30;;;;;;;;;;;;;;;21.26;30.53;98459.34;5021224;28;737;-78
2023/09/07 09:51:58;;;;;;;;;;;;;;;21.32;30.80;98443.47;5038279;28;1276;-78
2023/09/07 09:54:24;;;;;;;;;;;;;;;21.39;30.56;98451.03;5054260;28;1977;-78
2023/09/07 09:56:49;;;;;;;;;;;;;;;21.28;31.05;98444.75;5054036;28;1127;-78
2023/09/07 09:59:14;;;;;;;;;;;;;;;21.39;30.65;98444.56;5054193;28;894;-78
2023/09/07 10:01:41;;;;;;;;;;;;;;;21.31;31.06;98444.72;5037798;28;1150;-78
2023/09/07 10:04:07;;;;;;;;;;;;;;;21.35;30.78;98450.31;5054480;28;818;-79
2023/09/07 10:06:33;;;;;;;;;;;;;;;21.55;30.46;98453.16;5053987;28;901;-78
2023/09/07 10:08:59;;;;;;;;;;;;;;;21.51;30.37;98452.44;5037257;28;1163;-78
2023/09/07 10:11:31;;;;;;;;;;;;;;;21.53;30.40;98458.47;5017548;28;1228;-80
2023/09/07 10:13:58;;;;;;;;;;;;;;;21.45;30.52;98455.00;5017130;28;1976;-78
2023/09/07 10:16:23;;;;;;;;;;;;;;;21.29;30.93;98452.78;5028297;28;1774;-78
2023/09/07 10:18:49;;;;;;;;;;;;;;;21.57;30.30;98450.72;5036903;28;785;-78
2023/09/07 10:21:14;;;;;;;;;;;;;;;21.56;30.22;98437.78;5020953;28;805;-79
2023/09/07 10:23:41;;;;;;;;;;;;;;;21.59;30.04;98442.56;4997625;28;1195;-78
2023/09/07 10:26:15;;;;;;;;;;;;;;;21.70;29.88;98436.69;4999003;28;1024;-78
2023/09/07 10:28:41;;;;;;;;;;;;;;;21.57;30.21;98445.84;5018361;28;1223;-78
2023/09/07 10:31:09;;;;;;;;;;;;;;;21.59;29.96;98437.69;5018338;28;1063;-78
2023/09/07 10:33:35;;;;;;;;;;;;;;;21.45;30.36;98438.00;5017815;28;1954;-78
2023/09/07 10:36:01;;;;;;;;;;;;;;;21.32;30.68;98435.00;5017941;28;908;-79
2023/09/07 10:38:27;;;;;;;;;;;;;;;21.60;30.37;98438.50;5018216;28;1207;-78
2023/09/07 10:40:58;;;;;;;;;;;;;;;21.65;30.26;98440.03;5002309;28;1112;-78
2023/09/07 10:43:33;;;;;;;;;;;;;;;21.46;30.60;98444.47;4999599;28;1253;-79
2023/09/07 10:46:00;;;;;;;;;;;;;;;21.44;30.52;98442.03;4998846;28;1135;-78
2023/09/07 10:48:25;;;;;;;;;;;;;;;21.62;30.46;98441.72;4998588;28;897;-78
2023/09/07 10:50:51;;;;;;;;;;;;;;;21.50;30.48;98422.53;4998474;28;871;-79
2023/09/07 10:53:27;;;;;;;;;;;;;;;21.69;30.07;98435.91;4998698;28;1902;-78
2023/09/07 10:55:52;;;;;;;;;;;;;;;21.55;30.30;98424.84;4998530;28;923;-78
2023/09/07 10:58:27;;;;;;;;;;;;;;;21.49;30.33;98437.91;4998061;28;915;-78
2023/09/07 11:00:53;;;;;;;;;;;;;;;21.66;30.32;98431.13;5020180;28;981;-79
2023/09/07 11:03:19;;;;;;;;;;;;;;;21.67;30.30;98429.88;5020952;28;900;-78
2023/09/07 11:05:45;;;;;;;;;;;;;;;21.16;31.07;98426.38;5040635;28;794;-78
2023/09/07 11:08:10;;;;;;;;;;;;;;;21.47;30.73;98421.38;5022389;28;1110;-77
2023/09/07 11:10:36;;;;;;;;;;;;;;;21.59;30.35;98414.25;5038728;28;1100;-78
2023/09/07 11:13:02;;;;;;;;;;;;;;;21.83;29.99;98415.00;5038532;28;1906;-78
2023/09/07 11:15:29;;;;;;;;;;;;;;;21.40;30.79;98424.34;5046197;28;1087;-78
2023/09/07 11:17:54;;;;;;;;;;;;;;;21.65;30.18;98417.38;5058232;28;875;-78
2023/09/07 11:20:21;;;;;;;;;;;;;;;21.57;30.30;98417.53;5058611;28;1039;-79
2023/09/07 11:22:46;;;;;;;;;;;;;;;21.33;30.71;98402.63;5059068;28;1125;-78
2023/09/07 11:25:12;;;;;;;;;;;;;;;21.44;30.62;98407.28;5058176;28;1360;-78
2023/09/07 11:27:39;;;;;;;;;;;;;;;21.54;30.47;98406.25;5058735;28;1123;-78
2023/09/07 11:30:07;;;;;;;;;;;;;;;21.36;30.78;98411.50;5059199;28;991;-78
2023/09/07 11:32:33;;;;;;;;;;;;;;;21.35;30.29;98421.19;5058019;28;814;-78
2023/09/07 11:34:58;;;;;;;;;;;;;;;21.75;29.86;98417.16;5057984;28;1980;-78
2023/09/07 11:37:25;;;;;;;;;;;;;;;21.66;30.18;98402.81;5056273;28;980;-78
2023/09/07 11:39:50;;;;;;;;;;;;;;;21.61;30.35;98413.84;5057985;28;1095;-78
2023/09/07 11:42:16;;;;;;;;;;;;;;;21.79;29.99;98412.22;5058093;28;1072;-78
2023/09/07 11:44:41;;;;;;;;;;;;;;;21.59;30.36;98408.59;5058538;28;727;-78
2023/09/07 11:47:07;;;;;;;;;;;;;;;21.53;30.39;98411.13;5058897;28;747;-78
2023/09/07 11:49:32;;;;;;;;;;;;;;;21.37;30.57;98407.44;5058948;28;778;-78
2023/09/07 11:51:58;;;;;;;;;;;;;;;21.33;30.47;98419.59;5059377;28;755;-77
2023/09/07 11:54:23;;;;;;;;;;;;;;;21.47;30.56;98400.75;5058964;28;1918;-78
2023/09/07 11:56:49;;;;;;;;;;;;;;;21.52;30.45;98408.75;5058871;28;892;-78
2023/09/07 11:59:17;;;;;;;;;;;;;;;21.55;30.28;98413.53;5058806;28;811;-78
2023/09/07 12:01:42;;;;;;;;;;;;;;;21.73;30.09;98402.66;5058574;28;882;-78
2023/09/07 12:04:08;;;;;;;;;;;;;;;21.80;29.71;98410.97;5057562;28;1297;-79
2023/09/07 12:06:33;;;;;;;;;;;;;;;21.59;30.09;98414.25;5058730;28;899;-78
2023/09/07 12:08:59;;;;;;;;;;;;;;;21.54;30.16;98407.06;5040055;28;936;-78
2023/09/07 12:11:25;;;;;;;;;;;;;;;21.63;29.94;98415.00;5058685;28;1146;-78
2023/09/07 12:13:50;;;;;;;;;;;;;;;21.65;29.98;98417.38;5058051;28;1898;-78
2023/09/07 12:16:16;;;;;;;;;;;;;;;21.49;30.13;98415.25;5055882;28;935;-78
2023/09/07 12:18:41;;;;;;;;;;;;;;;21.38;30.36;98426.00;5056747;28;1235;-78
2023/09/07 12:21:08;;;;;;;;;;;;;;;21.65;29.86;98411.72;5055830;28;977;-78
2023/09/07 12:23:33;;;;;;;;;;;;;;;21.74;29.86;98409.09;5056773;28;1159;-79
2023/09/07 12:26:00;;;;;;;;;;;;;;;21.67;29.66;98409.25;5058195;28;730;-79
2023/09/07 12:28:26;;;;;;;;;;;;;;;21.82;29.63;98405.69;5056971;28;754;-78
2023/09/07 12:30:51;;;;;;;;;;;;;;;21.56;29.93;98398.94;5056335;28;790;-78
2023/09/07 12:33:17;;;;;;;;;;;;;;;21.58;29.83;98401.34;5057406;28;1898;-79
2023/09/07 12:35:42;;;;;;;;;;;;;;;21.67;29.94;98415.72;5057616;28;880;-78
2023/09/07 12:38:10;;;;;;;;;;;;;;;21.59;30.19;98402.94;5057658;28;740;-79
2023/09/07 12:40:36;;;;;;;;;;;;;;;21.62;30.18;98413.41;5057829;28;722;-78
2023/09/07 12:43:02;;;;;;;;;;;;;;;21.70;29.68;98412.00;5056173;28;846;-78
2023/09/07 12:45:27;;;;;;;;;;;;;;;21.65;30.13;98418.16;5056059;28;719;-78
2023/09/07 12:47:53;;;;;;;;;;;;;;;21.66;30.04;98405.63;5056264;28;1068;-79
2023/09/07 12:50:18;;;;;;;;;;;;;;;21.57;30.18;98416.72;5056546;28;781;-79
2023/09/07 12:52:44;;;;;;;;;;;;;;;21.63;30.06;98417.03;5056044;28;786;-78
2023/09/07 12:55:09;;;;;;;;;;;;;;;21.62;30.11;98412.59;5056408;28;1927;-78